35.5°F
Current conditions from King Hill
Updated every 5 minutes
 
  Thursday April 24, 2014

Station Historical Data
Daily Summary for July 29, 2012 Units:  Both    English   Metric
« Previous Day
Next Day »
Daily Weekly Monthly Yearly Custom
  High: Low: Average:
Temperature: 83.7 °F /  28.7 °C 55.8 °F /  13.2 °C 68 °F /  20 °C
Dew Point: 69.9 °F /  21.1 °C 54.4 °F /  12.4 °C 61.2 °F /  16.2 °C
Humidity: 97% 55% 81%
Wind Speed: 3.0mph /  4.8km/h - 1.4mph /  2.3km/h
Wind Gust: 10.0mph /  16.1km/h - -
Wind- - WSW
Pressure: 30.00 in /  1015.8 hPa 29.93 in /  1013.4 hPa -
Precipitation: 0.00 in /  0 mm    
Historical Graphs
 
 
Tabular Data for July 29, 2012
Time Temperature Dew Point Pressure Wind Wind Speed Wind Gust Humidity Daily Rainfall
00:04 59.0 °F /  15 °C 55.8 °F /  13.2 °C 29.95in /  1014.1hPa Calm     89% 0.00in /  0mm
00:09 59.0 °F /  15 °C 55.8 °F /  13.2 °C 29.95in /  1014.1hPa Calm     89% 0.00in /  0mm
00:14 59.0 °F /  15 °C 55.8 °F /  13.2 °C 29.95in /  1014.1hPa Calm     89% 0.00in /  0mm
00:19 58.9 °F /  14.9 °C 55.7 °F /  13.2 °C 29.95in /  1014.1hPa Calm     89% 0.00in /  0mm
00:24 58.8 °F /  14.9 °C 55.9 °F /  13.3 °C 29.95in /  1014.1hPa Calm     90% 0.00in /  0mm
00:29 58.8 °F /  14.9 °C 55.9 °F /  13.3 °C 29.95in /  1014.1hPa Calm     90% 0.00in /  0mm
00:34 58.7 °F /  14.8 °C 56.1 °F /  13.4 °C 29.95in /  1014.1hPa Calm     91% 0.00in /  0mm
00:39 58.7 °F /  14.8 °C 56.1 °F /  13.4 °C 29.95in /  1014.1hPa Calm     91% 0.00in /  0mm
00:44 58.7 °F /  14.8 °C 56.1 °F /  13.4 °C 29.95in /  1014.1hPa Calm     91% 0.00in /  0mm
00:49 58.7 °F /  14.8 °C 56.1 °F /  13.4 °C 29.95in /  1014.1hPa Calm     91% 0.00in /  0mm
00:54 58.6 °F /  14.8 °C 56.3 °F /  13.5 °C 29.95in /  1014.1hPa Calm     92% 0.00in /  0mm
00:59 58.6 °F /  14.8 °C 56.3 °F /  13.5 °C 29.95in /  1014.1hPa Calm     92% 0.00in /  0mm
01:04 58.5 °F /  14.7 °C 56.2 °F /  13.4 °C 29.95in /  1014.1hPa Calm     92% 0.00in /  0mm
01:09 58.5 °F /  14.7 °C 56.2 °F /  13.4 °C 29.95in /  1014.1hPa Calm     92% 0.00in /  0mm
01:14 58.5 °F /  14.7 °C 56.2 °F /  13.4 °C 29.95in /  1014.1hPa Calm     92% 0.00in /  0mm
01:19 58.6 °F /  14.8 °C 56.6 °F /  13.7 °C 29.95in /  1014.1hPa Calm     93% 0.00in /  0mm
01:24 58.6 °F /  14.8 °C 56.6 °F /  13.7 °C 29.94in /  1013.8hPa Calm     93% 0.00in /  0mm
01:29 58.7 °F /  14.8 °C 56.7 °F /  13.7 °C 29.94in /  1013.8hPa Calm     93% 0.00in /  0mm
01:34 58.6 °F /  14.8 °C 56.6 °F /  13.7 °C 29.94in /  1013.8hPa Calm     93% 0.00in /  0mm
01:39 58.5 °F /  14.7 °C 56.5 °F /  13.6 °C 29.94in /  1013.8hPa Calm     93% 0.00in /  0mm
01:44 58.5 °F /  14.7 °C 56.5 °F /  13.6 °C 29.94in /  1013.8hPa Calm     93% 0.00in /  0mm
01:49 58.4 °F /  14.7 °C 56.4 °F /  13.6 °C 29.94in /  1013.8hPa Calm     93% 0.00in /  0mm
01:54 58.3 °F /  14.6 °C 56.3 °F /  13.5 °C 29.94in /  1013.8hPa Calm     93% 0.00in /  0mm
01:59 58.2 °F /  14.6 °C 56.5 °F /  13.6 °C 29.94in /  1013.8hPa Calm     94% 0.00in /  0mm
02:04 58.1 °F /  14.5 °C 56.4 °F /  13.6 °C 29.94in /  1013.8hPa Calm     94% 0.00in /  0mm
02:09 58.1 °F /  14.5 °C 56.4 °F /  13.6 °C 29.94in /  1013.8hPa Calm     94% 0.00in /  0mm
02:14 58.1 °F /  14.5 °C 56.4 °F /  13.6 °C 29.94in /  1013.8hPa Calm     94% 0.00in /  0mm
02:19 58.0 °F /  14.4 °C 56.3 °F /  13.5 °C 29.94in /  1013.8hPa Calm     94% 0.00in /  0mm
02:24 58.0 °F /  14.4 °C 56.3 °F /  13.5 °C 29.94in /  1013.8hPa Calm     94% 0.00in /  0mm
02:29 57.9 °F /  14.4 °C 56.2 °F /  13.4 °C 29.94in /  1013.8hPa Calm     94% 0.00in /  0mm
02:34 58.1 °F /  14.5 °C 56.4 °F /  13.6 °C 29.94in /  1013.8hPa Calm     94% 0.00in /  0mm
02:39 58.1 °F /  14.5 °C 56.7 °F /  13.7 °C 29.94in /  1013.8hPa Calm     95% 0.00in /  0mm
02:44 58.0 °F /  14.4 °C 56.6 °F /  13.7 °C 29.94in /  1013.8hPa Calm     95% 0.00in /  0mm
02:49 57.9 °F /  14.4 °C 56.5 °F /  13.6 °C 29.94in /  1013.8hPa Calm     95% 0.00in /  0mm
02:54 57.9 °F /  14.4 °C 56.5 °F /  13.6 °C 29.94in /  1013.8hPa Calm     95% 0.00in /  0mm
02:59 57.9 °F /  14.4 °C 56.5 °F /  13.6 °C 29.94in /  1013.8hPa Calm     95% 0.00in /  0mm
03:04 57.8 °F /  14.3 °C 56.4 °F /  13.6 °C 29.94in /  1013.8hPa Calm     95% 0.00in /  0mm
03:09 57.7 °F /  14.3 °C 56.3 °F /  13.5 °C 29.93in /  1013.4hPa Calm     95% 0.00in /  0mm
03:14 57.6 °F /  14.2 °C 56.2 °F /  13.4 °C 29.93in /  1013.4hPa Calm     95% 0.00in /  0mm
03:19 57.5 °F /  14.2 °C 56.1 °F /  13.4 °C 29.93in /  1013.4hPa Calm     95% 0.00in /  0mm
03:24 57.3 °F /  14.1 °C 55.9 °F /  13.3 °C 29.94in /  1013.8hPa Calm     95% 0.00in /  0mm
03:29 57.4 °F /  14.1 °C 56.0 °F /  13.3 °C 29.94in /  1013.8hPa Calm     95% 0.00in /  0mm
03:34 57.6 °F /  14.2 °C 56.2 °F /  13.4 °C 29.94in /  1013.8hPa Calm     95% 0.00in /  0mm
03:39 57.7 °F /  14.3 °C 56.3 °F /  13.5 °C 29.94in /  1013.8hPa Calm     95% 0.00in /  0mm
03:44 57.6 °F /  14.2 °C 56.2 °F /  13.4 °C 29.93in /  1013.4hPa Calm     95% 0.00in /  0mm
03:49 57.6 °F /  14.2 °C 56.2 °F /  13.4 °C 29.93in /  1013.4hPa Calm     95% 0.00in /  0mm
03:54 57.8 °F /  14.3 °C 56.4 °F /  13.6 °C 29.93in /  1013.4hPa Calm     95% 0.00in /  0mm
03:59 57.8 °F /  14.3 °C 56.4 °F /  13.6 °C 29.93in /  1013.4hPa Calm     95% 0.00in /  0mm
04:04 57.8 °F /  14.3 °C 56.4 °F /  13.6 °C 29.93in /  1013.4hPa Calm     95% 0.00in /  0mm
04:09 57.7 °F /  14.3 °C 56.3 °F /  13.5 °C 29.93in /  1013.4hPa Calm     95% 0.00in /  0mm
04:14 57.7 °F /  14.3 °C 56.3 °F /  13.5 °C 29.93in /  1013.4hPa Calm     95% 0.00in /  0mm
04:19 57.6 °F /  14.2 °C 56.2 °F /  13.4 °C 29.93in /  1013.4hPa Calm     95% 0.00in /  0mm
04:24 57.4 °F /  14.1 °C 56.0 °F /  13.3 °C 29.93in /  1013.4hPa Calm     95% 0.00in /  0mm
04:29 57.2 °F /  14 °C 55.8 °F /  13.2 °C 29.93in /  1013.4hPa Calm     95% 0.00in /  0mm
04:34 57.0 °F /  13.9 °C 55.6 °F /  13.1 °C 29.93in /  1013.4hPa Calm     95% 0.00in /  0mm
04:39 56.9 °F /  13.8 °C 55.5 °F /  13.1 °C 29.93in /  1013.4hPa Calm     95% 0.00in /  0mm
04:44 56.8 °F /  13.8 °C 55.4 °F /  13 °C 29.93in /  1013.4hPa Calm     95% 0.00in /  0mm
04:49 56.8 °F /  13.8 °C 55.4 °F /  13 °C 29.94in /  1013.8hPa Calm     95% 0.00in /  0mm
04:54 56.8 °F /  13.8 °C 55.4 °F /  13 °C 29.94in /  1013.8hPa Calm     95% 0.00in /  0mm
04:59 56.7 °F /  13.7 °C 55.3 °F /  12.9 °C 29.94in /  1013.8hPa Calm     95% 0.00in /  0mm
05:04 56.5 °F /  13.6 °C 55.1 °F /  12.8 °C 29.94in /  1013.8hPa Calm     95% 0.00in /  0mm
05:09 56.3 °F /  13.5 °C 54.9 °F /  12.7 °C 29.94in /  1013.8hPa Calm     95% 0.00in /  0mm
05:14 56.3 °F /  13.5 °C 54.9 °F /  12.7 °C 29.94in /  1013.8hPa Calm     95% 0.00in /  0mm
05:19 56.3 °F /  13.5 °C 54.9 °F /  12.7 °C 29.94in /  1013.8hPa Calm     95% 0.00in /  0mm
05:24 56.2 °F /  13.4 °C 54.8 °F /  12.7 °C 29.95in /  1014.1hPa Calm     95% 0.00in /  0mm
05:29 56.1 °F /  13.4 °C 54.7 °F /  12.6 °C 29.95in /  1014.1hPa Calm     95% 0.00in /  0mm
05:34 56.0 °F /  13.3 °C 54.9 °F /  12.7 °C 29.95in /  1014.1hPa Calm     96% 0.00in /  0mm
05:39 56.0 °F /  13.3 °C 54.9 °F /  12.7 °C 29.95in /  1014.1hPa Calm     96% 0.00in /  0mm
05:44 55.9 °F /  13.3 °C 54.8 °F /  12.7 °C 29.95in /  1014.1hPa Calm     96% 0.00in /  0mm
05:49 55.9 °F /  13.3 °C 54.5 °F /  12.5 °C 29.95in /  1014.1hPa Calm     95% 0.00in /  0mm
05:54 55.8 °F /  13.2 °C 54.4 °F /  12.4 °C 29.95in /  1014.1hPa Calm     95% 0.00in /  0mm
05:59 55.8 °F /  13.2 °C 54.4 °F /  12.4 °C 29.95in /  1014.1hPa Calm     95% 0.00in /  0mm
06:04 55.8 °F /  13.2 °C 54.4 °F /  12.4 °C 29.96in /  1014.4hPa Calm     95% 0.00in /  0mm
06:09 56.2 °F /  13.4 °C 55.1 °F /  12.8 °C 29.96in /  1014.4hPa Calm     96% 0.00in /  0mm
06:14 56.5 °F /  13.6 °C 55.4 °F /  13 °C 29.96in /  1014.4hPa Calm     96% 0.00in /  0mm
06:19 56.8 °F /  13.8 °C 55.7 °F /  13.2 °C 29.96in /  1014.4hPa Calm     96% 0.00in /  0mm
06:24 57.0 °F /  13.9 °C 55.9 °F /  13.3 °C 29.97in /  1014.8hPa Calm     96% 0.00in /  0mm
06:29 57.3 °F /  14.1 °C 56.2 °F /  13.4 °C 29.97in /  1014.8hPa Calm     96% 0.00in /  0mm
06:34 57.6 °F /  14.2 °C 56.5 °F /  13.6 °C 29.97in /  1014.8hPa Calm     96% 0.00in /  0mm
06:39 58.1 °F /  14.5 °C 57.0 °F /  13.9 °C 29.97in /  1014.8hPa Calm     96% 0.00in /  0mm
06:44 58.5 °F /  14.7 °C 57.4 °F /  14.1 °C 29.97in /  1014.8hPa Calm     96% 0.00in /  0mm
06:49 58.6 °F /  14.8 °C 57.5 °F /  14.2 °C 29.97in /  1014.8hPa Calm     96% 0.00in /  0mm
06:54 58.7 °F /  14.8 °C 57.6 °F /  14.2 °C 29.98in /  1015.1hPa Calm     96% 0.00in /  0mm
06:59 59.0 °F /  15 °C 57.9 °F /  14.4 °C 29.98in /  1015.1hPa Calm     96% 0.00in /  0mm
07:04 59.3 °F /  15.2 °C 58.2 °F /  14.6 °C 29.98in /  1015.1hPa Calm     96% 0.00in /  0mm
07:09 59.8 °F /  15.4 °C 58.7 °F /  14.8 °C 29.98in /  1015.1hPa Calm     96% 0.00in /  0mm
07:14 60.4 °F /  15.8 °C 59.3 °F /  15.2 °C 29.98in /  1015.1hPa Calm     96% 0.00in /  0mm
07:19 60.8 °F /  16 °C 59.7 °F /  15.4 °C 29.98in /  1015.1hPa Calm     96% 0.00in /  0mm
07:24 61.3 °F /  16.3 °C 60.2 °F /  15.7 °C 29.98in /  1015.1hPa Calm     96% 0.00in /  0mm
07:29 61.6 °F /  16.4 °C 60.4 °F /  15.8 °C 29.98in /  1015.1hPa Calm     96% 0.00in /  0mm
07:34 61.8 °F /  16.6 °C 60.6 °F /  15.9 °C 29.99in /  1015.5hPa Calm     96% 0.00in /  0mm
07:39 61.9 °F /  16.6 °C 60.7 °F /  15.9 °C 29.99in /  1015.5hPa Calm     96% 0.00in /  0mm
07:44 62.1 °F /  16.7 °C 60.9 °F /  16.1 °C 29.99in /  1015.5hPa Calm     96% 0.00in /  0mm
07:49 62.3 °F /  16.8 °C 61.1 °F /  16.2 °C 29.98in /  1015.1hPa Calm     96% 0.00in /  0mm
07:54 62.6 °F /  17 °C 61.7 °F /  16.5 °C 29.98in /  1015.1hPa Calm     97% 0.00in /  0mm
07:59 62.7 °F /  17.1 °C 61.5 °F /  16.4 °C 29.99in /  1015.5hPa Calm     96% 0.00in /  0mm
08:04 63.1 °F /  17.3 °C 61.9 °F /  16.6 °C 29.99in /  1015.5hPa Calm     96% 0.00in /  0mm
08:09 63.3 °F /  17.4 °C 62.1 °F /  16.7 °C 29.99in /  1015.5hPa Calm     96% 0.00in /  0mm
08:14 63.0 °F /  17.2 °C 61.8 °F /  16.6 °C 29.99in /  1015.5hPa Calm     96% 0.00in /  0mm
08:19 63.3 °F /  17.4 °C 62.1 °F /  16.7 °C 29.99in /  1015.5hPa Calm     96% 0.00in /  0mm
08:24 63.9 °F /  17.7 °C 62.7 °F /  17.1 °C 29.99in /  1015.5hPa Calm     96% 0.00in /  0mm
08:29 63.8 °F /  17.7 °C 62.3 °F /  16.8 °C 29.99in /  1015.5hPa Calm     95% 0.00in /  0mm
08:34 63.9 °F /  17.7 °C 62.1 °F /  16.7 °C 29.98in /  1015.1hPa Calm     94% 0.00in /  0mm
08:39 64.3 °F /  17.9 °C 61.9 °F /  16.6 °C 29.98in /  1015.1hPa Calm     92% 0.00in /  0mm
08:44 64.7 °F /  18.2 °C 61.7 °F /  16.5 °C 29.98in /  1015.1hPa Calm     90% 0.00in /  0mm
08:49 64.9 °F /  18.3 °C 60.9 °F /  16.1 °C 29.98in /  1015.1hPa Calm     87% 0.00in /  0mm
08:54 65.7 °F /  18.7 °C 61.1 °F /  16.2 °C 29.98in /  1015.1hPa Calm     85% 0.00in /  0mm
08:59 66.7 °F /  19.3 °C 61.0 °F /  16.1 °C 29.98in /  1015.1hPa Calm     82% 0.00in /  0mm
09:10 68.1 °F /  20.1 °C 60.6 °F /  15.9 °C 29.98in /  1015.1hPa Calm     77% 0.00in /  0mm
09:15 68.8 °F /  20.4 °C 61.7 °F /  16.5 °C 29.98in /  1015.1hPa Calm     78% 0.00in /  0mm
09:20 69.5 °F /  20.8 °C 62.0 °F /  16.7 °C 29.98in /  1015.1hPa Calm     77% 0.00in /  0mm
09:30 70.4 °F /  21.3 °C 61.7 °F /  16.5 °C 29.98in /  1015.1hPa Calm     74% 0.00in /  0mm
09:35 71.1 °F /  21.7 °C 63.5 °F /  17.5 °C 29.98in /  1015.1hPa Calm     77% 0.00in /  0mm
09:40 71.3 °F /  21.8 °C 62.6 °F /  17 °C 29.98in /  1015.1hPa Calm     74% 0.00in /  0mm
09:45 72.0 °F /  22.2 °C 63.7 °F /  17.6 °C 29.98in /  1015.1hPa Calm     75% 0.00in /  0mm
09:50 72.5 °F /  22.5 °C 64.1 °F /  17.8 °C 29.98in /  1015.1hPa Calm     75% 0.00in /  0mm
09:55 73.0 °F /  22.8 °C 63.8 °F /  17.7 °C 29.98in /  1015.1hPa Calm     73% 0.00in /  0mm
10:00 73.3 °F /  22.9 °C 63.3 °F /  17.4 °C 29.98in /  1015.1hPa Calm     71% 0.00in /  0mm
10:05 73.3 °F /  22.9 °C 63.7 °F /  17.6 °C 29.99in /  1015.5hPa Calm     72% 0.00in /  0mm
10:10 73.2 °F /  22.9 °C 63.6 °F /  17.6 °C 29.98in /  1015.1hPa Calm   3.0mph /  4.8km/h 72% 0.00in /  0mm
10:15 73.2 °F /  22.9 °C 63.6 °F /  17.6 °C 29.98in /  1015.1hPa Calm   3.0mph /  4.8km/h 72% 0.00in /  0mm
10:25 72.8 °F /  22.7 °C 64.8 °F /  18.2 °C 29.98in /  1015.1hPa Calm   1.0mph /  1.6km/h 76% 0.00in /  0mm
10:30 72.7 °F /  22.6 °C 62.8 °F /  17.1 °C 29.98in /  1015.1hPa Calm     71% 0.00in /  0mm
10:35 72.1 °F /  22.3 °C 63.0 °F /  17.2 °C 29.98in /  1015.1hPa Calm     73% 0.00in /  0mm
10:45 72.0 °F /  22.2 °C 63.7 °F /  17.6 °C 29.98in /  1015.1hPa Calm   4.0mph /  6.4km/h 75% 0.00in /  0mm
10:50 72.2 °F /  22.3 °C 63.1 °F /  17.3 °C 29.98in /  1015.1hPa Calm   1.0mph /  1.6km/h 73% 0.00in /  0mm
10:55 72.7 °F /  22.6 °C 64.3 °F /  17.9 °C 29.98in /  1015.1hPa Calm     75% 0.00in /  0mm
11:00 73.3 °F /  22.9 °C 63.7 °F /  17.6 °C 29.99in /  1015.5hPa Calm     72% 0.00in /  0mm
11:10 73.8 °F /  23.2 °C 65.0 °F /  18.3 °C 29.98in /  1015.1hPa Calm   6.0mph /  9.7km/h 74% 0.00in /  0mm
11:15 73.9 °F /  23.3 °C 64.7 °F /  18.2 °C 29.98in /  1015.1hPa Calm   6.0mph /  9.7km/h 73% 0.00in /  0mm
11:25 75.0 °F /  23.9 °C 64.6 °F /  18.1 °C 29.98in /  1015.1hPa Calm     70% 0.00in /  0mm
11:30 75.0 °F /  23.9 °C 64.2 °F /  17.9 °C 29.98in /  1015.1hPa Calm   1.0mph /  1.6km/h 69% 0.00in /  0mm
11:35 75.3 °F /  24.1 °C 64.9 °F /  18.3 °C 29.98in /  1015.1hPa Calm   1.0mph /  1.6km/h 70% 0.00in /  0mm
11:40 75.9 °F /  24.4 °C 65.8 °F /  18.8 °C 29.98in /  1015.1hPa Calm     71% 0.00in /  0mm
11:45 76.5 °F /  24.7 °C 65.6 °F /  18.7 °C 29.98in /  1015.1hPa Calm   5.0mph /  8km/h 69% 0.00in /  0mm
11:50 76.7 °F /  24.8 °C 66.2 °F /  19 °C 29.98in /  1015.1hPa Calm   5.0mph /  8km/h 70% 0.00in /  0mm
11:55 77.2 °F /  25.1 °C 66.7 °F /  19.3 °C 29.98in /  1015.1hPa Calm   1.0mph /  1.6km/h 70% 0.00in /  0mm
12:00 77.0 °F /  25 °C 66.5 °F /  19.2 °C 29.98in /  1015.1hPa Calm   4.0mph /  6.4km/h 70% 0.00in /  0mm
12:05 76.7 °F /  24.8 °C 66.2 °F /  19 °C 29.98in /  1015.1hPa Calm   4.0mph /  6.4km/h 70% 0.00in /  0mm
12:15 77.6 °F /  25.3 °C 67.5 °F /  19.7 °C 29.98in /  1015.1hPa Calm   5.0mph /  8km/h 71% 0.00in /  0mm
12:20 78.1 °F /  25.6 °C 65.8 °F /  18.8 °C 29.98in /  1015.1hPa Calm     66% 0.00in /  0mm
12:25 78.3 °F /  25.7 °C 66.0 °F /  18.9 °C 29.97in /  1014.8hPa Calm     66% 0.00in /  0mm
12:30 78.4 °F /  25.8 °C 66.1 °F /  18.9 °C 29.97in /  1014.8hPa Calm     66% 0.00in /  0mm
12:35 78.6 °F /  25.9 °C 65.9 °F /  18.8 °C 29.97in /  1014.8hPa Calm   4.0mph /  6.4km/h 65% 0.00in /  0mm
12:40 78.5 °F /  25.8 °C 66.2 °F /  19 °C 29.97in /  1014.8hPa Calm   4.0mph /  6.4km/h 66% 0.00in /  0mm
12:45 78.5 °F /  25.8 °C 67.9 °F /  19.9 °C 29.97in /  1014.8hPa Calm   3.0mph /  4.8km/h 70% 0.00in /  0mm
12:50 78.7 °F /  25.9 °C 67.3 °F /  19.6 °C 29.97in /  1014.8hPa Calm     68% 0.00in /  0mm
12:55 78.6 °F /  25.9 °C 65.0 °F /  18.3 °C 29.97in /  1014.8hPa Calm     63% 0.00in /  0mm
13:00 78.3 °F /  25.7 °C 66.0 °F /  18.9 °C 29.97in /  1014.8hPa Calm     66% 0.00in /  0mm
13:10 77.1 °F /  25.1 °C 66.6 °F /  19.2 °C 29.97in /  1014.8hPa Calm     70% 0.00in /  0mm
13:15 76.6 °F /  24.8 °C 66.1 °F /  18.9 °C 29.97in /  1014.8hPa Calm     70% 0.00in /  0mm
13:20 76.1 °F /  24.5 °C 65.6 °F /  18.7 °C 29.97in /  1014.8hPa Calm     70% 0.00in /  0mm
13:25 75.7 °F /  24.3 °C 66.0 °F /  18.9 °C 29.96in /  1014.4hPa Calm     72% 0.00in /  0mm
13:30 76.2 °F /  24.6 °C 66.1 °F /  18.9 °C 29.96in /  1014.4hPa Calm     71% 0.00in /  0mm
13:35 76.3 °F /  24.6 °C 65.4 °F /  18.6 °C 29.96in /  1014.4hPa Calm   4.0mph /  6.4km/h 69% 0.00in /  0mm
13:40 76.0 °F /  24.4 °C 65.5 °F /  18.6 °C 29.95in /  1014.1hPa Calm   4.0mph /  6.4km/h 70% 0.00in /  0mm
13:45 77.0 °F /  25 °C 66.1 °F /  18.9 °C 29.95in /  1014.1hPa SW 1.0mph /  1.6km/h 4.0mph /  6.4km/h 69% 0.00in /  0mm
13:50 78.3 °F /  25.7 °C 68.5 °F /  20.3 °C 29.95in /  1014.1hPa Calm   4.0mph /  6.4km/h 72% 0.00in /  0mm
14:00 79.7 °F /  26.5 °C 65.5 °F /  18.6 °C 29.95in /  1014.1hPa Calm   1.0mph /  1.6km/h 62% 0.00in /  0mm
14:05 79.9 °F /  26.6 °C 67.1 °F /  19.5 °C 29.95in /  1014.1hPa Calm   1.0mph /  1.6km/h 65% 0.00in /  0mm
14:10 80.5 °F /  26.9 °C 68.5 °F /  20.3 °C 29.95in /  1014.1hPa Calm   1.0mph /  1.6km/h 67% 0.00in /  0mm
14:15 80.6 °F /  27 °C 66.4 °F /  19.1 °C 29.95in /  1014.1hPa NW 2.0mph /  3.2km/h 7.0mph /  11.3km/h 62% 0.00in /  0mm
14:20 81.0 °F /  27.2 °C 69.9 °F /  21.1 °C 29.95in /  1014.1hPa Calm   7.0mph /  11.3km/h 69% 0.00in /  0mm
14:25 81.4 °F /  27.4 °C 69.0 °F /  20.6 °C 29.95in /  1014.1hPa Calm   5.0mph /  8km/h 66% 0.00in /  0mm
14:30 81.8 °F /  27.7 °C 67.5 °F /  19.7 °C 29.95in /  1014.1hPa WNW 1.0mph /  1.6km/h 5.0mph /  8km/h 62% 0.00in /  0mm
14:35 81.8 °F /  27.7 °C 67.1 °F /  19.5 °C 29.95in /  1014.1hPa Calm   6.0mph /  9.7km/h 61% 0.00in /  0mm
14:40 81.6 °F /  27.6 °C 66.4 °F /  19.1 °C 29.94in /  1013.8hPa Calm   6.0mph /  9.7km/h 60% 0.00in /  0mm
14:45 81.6 °F /  27.6 °C 67.8 °F /  19.9 °C 29.94in /  1013.8hPa Calm   6.0mph /  9.7km/h 63% 0.00in /  0mm
14:50 81.5 °F /  27.5 °C 66.8 °F /  19.3 °C 29.94in /  1013.8hPa Calm   6.0mph /  9.7km/h 61% 0.00in /  0mm
14:55 81.4 °F /  27.4 °C 67.1 °F /  19.5 °C 29.94in /  1013.8hPa WNW 2.0mph /  3.2km/h 7.0mph /  11.3km/h 62% 0.00in /  0mm
15:05 81.3 °F /  27.4 °C 66.6 °F /  19.2 °C 29.94in /  1013.8hPa WNW 1.0mph /  1.6km/h 6.0mph /  9.7km/h 61% 0.00in /  0mm
15:15 81.4 °F /  27.4 °C 67.1 °F /  19.5 °C 29.94in /  1013.8hPa Calm     62% 0.00in /  0mm
15:20 81.6 °F /  27.6 °C 66.9 °F /  19.4 °C 29.94in /  1013.8hPa WNW 1.0mph /  1.6km/h 4.0mph /  6.4km/h 61% 0.00in /  0mm
15:30 82.3 °F /  27.9 °C 67.5 °F /  19.7 °C 29.93in /  1013.4hPa Calm   5.0mph /  8km/h 61% 0.00in /  0mm
15:35 82.1 °F /  27.8 °C 66.9 °F /  19.4 °C 29.93in /  1013.4hPa Calm   5.0mph /  8km/h 60% 0.00in /  0mm
15:40 81.7 °F /  27.6 °C 66.5 °F /  19.2 °C 29.93in /  1013.4hPa Calm   5.0mph /  8km/h 60% 0.00in /  0mm
15:45 81.6 °F /  27.6 °C 65.9 °F /  18.8 °C 29.93in /  1013.4hPa Calm   4.0mph /  6.4km/h 59% 0.00in /  0mm
15:50 81.4 °F /  27.4 °C 66.7 °F /  19.3 °C 29.93in /  1013.4hPa Calm   7.0mph /  11.3km/h 61% 0.00in /  0mm
15:55 81.6 °F /  27.6 °C 66.4 °F /  19.1 °C 29.93in /  1013.4hPa Calm   8.0mph /  12.9km/h 60% 0.00in /  0mm
16:05 82.3 °F /  27.9 °C 66.6 °F /  19.2 °C 29.93in /  1013.4hPa NW 1.0mph /  1.6km/h 5.0mph /  8km/h 59% 0.00in /  0mm
16:10 82.3 °F /  27.9 °C 66.6 °F /  19.2 °C 29.93in /  1013.4hPa Calm   5.0mph /  8km/h 59% 0.00in /  0mm
16:15 82.4 °F /  28 °C 66.7 °F /  19.3 °C 29.93in /  1013.4hPa Calm   9.0mph /  14.5km/h 59% 0.00in /  0mm
16:20 82.4 °F /  28 °C 67.1 °F /  19.5 °C 29.93in /  1013.4hPa Calm   9.0mph /  14.5km/h 60% 0.00in /  0mm
16:25 82.6 °F /  28.1 °C 67.8 °F /  19.9 °C 29.93in /  1013.4hPa Calm   4.0mph /  6.4km/h 61% 0.00in /  0mm
16:30 82.9 °F /  28.3 °C 66.1 °F /  18.9 °C 29.93in /  1013.4hPa Calm   3.0mph /  4.8km/h 57% 0.00in /  0mm
16:35 83.1 °F /  28.4 °C 65.8 °F /  18.8 °C 29.93in /  1013.4hPa Calm     56% 0.00in /  0mm
16:40 83.4 °F /  28.6 °C 66.6 °F /  19.2 °C 29.93in /  1013.4hPa Calm     57% 0.00in /  0mm
16:50 83.7 °F /  28.7 °C 65.8 °F /  18.8 °C 29.93in /  1013.4hPa Calm     55% 0.00in /  0mm
17:00 82.1 °F /  27.8 °C 64.4 °F /  18 °C 29.94in /  1013.8hPa WNW 1.0mph /  1.6km/h 10.0mph /  16.1km/h 55% 0.00in /  0mm
17:05 81.5 °F /  27.5 °C 63.8 °F /  17.7 °C 29.94in /  1013.8hPa WNW 1.0mph /  1.6km/h 6.0mph /  9.7km/h 55% 0.00in /  0mm
17:10 81.3 °F /  27.4 °C 63.6 °F /  17.6 °C 29.93in /  1013.4hPa NW 1.0mph /  1.6km/h 7.0mph /  11.3km/h 55% 0.00in /  0mm
17:15 81.4 °F /  27.4 °C 65.2 °F /  18.4 °C 29.93in /  1013.4hPa Calm   7.0mph /  11.3km/h 58% 0.00in /  0mm
17:25 81.4 °F /  27.4 °C 64.2 °F /  17.9 °C 29.93in /  1013.4hPa NW 3.0mph /  4.8km/h 9.0mph /  14.5km/h 56% 0.00in /  0mm
17:30 81.6 °F /  27.6 °C 66.9 °F /  19.4 °C 29.93in /  1013.4hPa Calm   9.0mph /  14.5km/h 61% 0.00in /  0mm
17:35 81.8 °F /  27.7 °C 66.1 °F /  18.9 °C 29.93in /  1013.4hPa Calm     59% 0.00in /  0mm
17:40 81.9 °F /  27.7 °C 66.2 °F /  19 °C 29.93in /  1013.4hPa Calm     59% 0.00in /  0mm
17:50 81.3 °F /  27.4 °C 65.1 °F /  18.4 °C 29.93in /  1013.4hPa NNE 1.0mph /  1.6km/h 7.0mph /  11.3km/h 58% 0.00in /  0mm
17:55 80.3 °F /  26.8 °C 64.2 °F /  17.9 °C 29.93in /  1013.4hPa NNE 2.0mph /  3.2km/h 8.0mph /  12.9km/h 58% 0.00in /  0mm
18:00 79.2 °F /  26.2 °C 64.6 °F /  18.1 °C 29.93in /  1013.4hPa Calm   8.0mph /  12.9km/h 61% 0.00in /  0mm
18:05 78.7 °F /  25.9 °C 64.6 °F /  18.1 °C 29.93in /  1013.4hPa Calm   3.0mph /  4.8km/h 62% 0.00in /  0mm
18:10 78.6 °F /  25.9 °C 64.5 °F /  18.1 °C 29.93in /  1013.4hPa Calm     62% 0.00in /  0mm
18:15 78.7 °F /  25.9 °C 64.6 °F /  18.1 °C 29.93in /  1013.4hPa Calm   2.0mph /  3.2km/h 62% 0.00in /  0mm
18:20 79.1 °F /  26.2 °C 64.0 °F /  17.8 °C 29.94in /  1013.8hPa Calm   2.0mph /  3.2km/h 60% 0.00in /  0mm
18:25 79.3 °F /  26.3 °C 64.2 °F /  17.9 °C 29.94in /  1013.8hPa ENE 1.0mph /  1.6km/h 4.0mph /  6.4km/h 60% 0.00in /  0mm
18:30 79.2 °F /  26.2 °C 65.5 °F /  18.6 °C 29.94in /  1013.8hPa Calm   4.0mph /  6.4km/h 63% 0.00in /  0mm
18:35 79.1 °F /  26.2 °C 64.0 °F /  17.8 °C 29.94in /  1013.8hPa Calm   5.0mph /  8km/h 60% 0.00in /  0mm
18:45 78.5 °F /  25.8 °C 65.3 °F /  18.5 °C 29.94in /  1013.8hPa Calm   4.0mph /  6.4km/h 64% 0.00in /  0mm
18:55 77.4 °F /  25.2 °C 64.7 °F /  18.2 °C 29.94in /  1013.8hPa Calm   4.0mph /  6.4km/h 65% 0.00in /  0mm
19:00 76.9 °F /  24.9 °C 63.8 °F /  17.7 °C 29.94in /  1013.8hPa Calm   3.0mph /  4.8km/h 64% 0.00in /  0mm
19:05 76.6 °F /  24.8 °C 63.5 °F /  17.5 °C 29.95in /  1014.1hPa Calm     64% 0.00in /  0mm
19:10 76.4 °F /  24.7 °C 64.6 °F /  18.1 °C 29.95in /  1014.1hPa Calm     67% 0.00in /  0mm
19:15 76.6 °F /  24.8 °C 64.4 °F /  18 °C 29.95in /  1014.1hPa Calm     66% 0.00in /  0mm
19:25 76.9 °F /  24.9 °C 64.3 °F /  17.9 °C 29.96in /  1014.4hPa Calm     65% 0.00in /  0mm
19:30 77.0 °F /  25 °C 64.3 °F /  17.9 °C 29.97in /  1014.8hPa Calm     65% 0.00in /  0mm
19:35 77.0 °F /  25 °C 63.9 °F /  17.7 °C 29.96in /  1014.4hPa Calm     64% 0.00in /  0mm
19:40 76.8 °F /  24.9 °C 63.7 °F /  17.6 °C 29.96in /  1014.4hPa Calm     64% 0.00in /  0mm
19:45 76.6 °F /  24.8 °C 64.8 °F /  18.2 °C 29.96in /  1014.4hPa Calm     67% 0.00in /  0mm
19:50 76.3 °F /  24.6 °C 64.1 °F /  17.8 °C 29.96in /  1014.4hPa Calm     66% 0.00in /  0mm
19:55 76.0 °F /  24.4 °C 65.1 °F /  18.4 °C 29.96in /  1014.4hPa Calm     69% 0.00in /  0mm
20:00 75.5 °F /  24.2 °C 65.0 °F /  18.3 °C 29.96in /  1014.4hPa Calm     70% 0.00in /  0mm
20:05 74.9 °F /  23.8 °C 64.1 °F /  17.8 °C 29.96in /  1014.4hPa Calm     69% 0.00in /  0mm
20:15 73.7 °F /  23.2 °C 64.1 °F /  17.8 °C 29.96in /  1014.4hPa Calm     72% 0.00in /  0mm
20:20 72.9 °F /  22.7 °C 63.7 °F /  17.6 °C 29.96in /  1014.4hPa Calm     73% 0.00in /  0mm
20:30 71.7 °F /  22.1 °C 63.4 °F /  17.4 °C 29.97in /  1014.8hPa Calm     75% 0.00in /  0mm
20:40 70.7 °F /  21.5 °C 62.8 °F /  17.1 °C 29.97in /  1014.8hPa Calm     76% 0.00in /  0mm
20:45 70.2 °F /  21.2 °C 62.7 °F /  17.1 °C 29.97in /  1014.8hPa Calm     77% 0.00in /  0mm
20:55 69.2 °F /  20.7 °C 62.1 °F /  16.7 °C 29.97in /  1014.8hPa Calm     78% 0.00in /  0mm
21:00 68.7 °F /  20.4 °C 61.9 °F /  16.6 °C 29.97in /  1014.8hPa Calm     79% 0.00in /  0mm
21:05 67.9 °F /  19.9 °C 61.5 °F /  16.4 °C 29.97in /  1014.8hPa Calm     80% 0.00in /  0mm
21:10 67.2 °F /  19.6 °C 61.2 °F /  16.2 °C 29.97in /  1014.8hPa Calm     81% 0.00in /  0mm
21:20 66.6 °F /  19.2 °C 61.6 °F /  16.4 °C 29.98in /  1015.1hPa Calm   1.0mph /  1.6km/h 84% 0.00in /  0mm
21:25 66.3 °F /  19.1 °C 61.3 °F /  16.3 °C 29.98in /  1015.1hPa Calm   1.0mph /  1.6km/h 84% 0.00in /  0mm
21:30 66.0 °F /  18.9 °C 61.0 °F /  16.1 °C 29.98in /  1015.1hPa Calm     84% 0.00in /  0mm
21:35 65.7 °F /  18.7 °C 61.1 °F /  16.2 °C 29.98in /  1015.1hPa Calm     85% 0.00in /  0mm
21:40 65.2 °F /  18.4 °C 60.6 °F /  15.9 °C 29.98in /  1015.1hPa Calm     85% 0.00in /  0mm
21:50 64.7 °F /  18.2 °C 60.4 °F /  15.8 °C 29.98in /  1015.1hPa Calm     86% 0.00in /  0mm
21:55 64.7 °F /  18.2 °C 60.7 °F /  15.9 °C 29.98in /  1015.1hPa Calm     87% 0.00in /  0mm
22:00 64.5 °F /  18.1 °C 60.5 °F /  15.8 °C 29.98in /  1015.1hPa Calm     87% 0.00in /  0mm
22:05 64.1 °F /  17.8 °C 60.2 °F /  15.7 °C 29.98in /  1015.1hPa Calm     87% 0.00in /  0mm
22:10 63.7 °F /  17.6 °C 59.8 °F /  15.4 °C 29.98in /  1015.1hPa Calm     87% 0.00in /  0mm
22:15 63.5 °F /  17.5 °C 59.6 °F /  15.3 °C 29.98in /  1015.1hPa Calm     87% 0.00in /  0mm
22:20 63.2 °F /  17.3 °C 59.6 °F /  15.3 °C 29.99in /  1015.5hPa Calm     88% 0.00in /  0mm
22:25 63.0 °F /  17.2 °C 59.4 °F /  15.2 °C 29.99in /  1015.5hPa Calm     88% 0.00in /  0mm
22:30 62.8 °F /  17.1 °C 59.2 °F /  15.1 °C 29.99in /  1015.5hPa Calm     88% 0.00in /  0mm
22:35 62.5 °F /  16.9 °C 59.2 °F /  15.1 °C 29.99in /  1015.5hPa Calm     89% 0.00in /  0mm
22:40 62.3 °F /  16.8 °C 59.0 °F /  15 °C 29.99in /  1015.5hPa Calm     89% 0.00in /  0mm
22:45 62.2 °F /  16.8 °C 58.9 °F /  14.9 °C 29.99in /  1015.5hPa Calm     89% 0.00in /  0mm
22:50 62.2 °F /  16.8 °C 59.2 °F /  15.1 °C 29.99in /  1015.5hPa Calm     90% 0.00in /  0mm
22:55 62.4 °F /  16.9 °C 59.7 °F /  15.4 °C 29.99in /  1015.5hPa Calm     91% 0.00in /  0mm
23:00 62.5 °F /  16.9 °C 59.8 °F /  15.4 °C 29.99in /  1015.5hPa Calm     91% 0.00in /  0mm
23:05 62.3 °F /  16.8 °C 59.6 °F /  15.3 °C 29.99in /  1015.5hPa Calm     91% 0.00in /  0mm
23:10 62.1 °F /  16.7 °C 59.4 °F /  15.2 °C 29.99in /  1015.5hPa Calm     91% 0.00in /  0mm
23:15 61.8 °F /  16.6 °C 59.1 °F /  15.1 °C 29.99in /  1015.5hPa Calm     91% 0.00in /  0mm
23:20 61.6 °F /  16.4 °C 58.9 °F /  14.9 °C 29.99in /  1015.5hPa Calm     91% 0.00in /  0mm
23:25 61.2 °F /  16.2 °C 58.6 °F /  14.8 °C 29.99in /  1015.5hPa Calm     91% 0.00in /  0mm
23:30 61.0 °F /  16.1 °C 58.4 °F /  14.7 °C 29.99in /  1015.5hPa Calm     91% 0.00in /  0mm
23:35 60.9 °F /  16.1 °C 58.3 °F /  14.6 °C 30.00in /  1015.8hPa Calm     91% 0.00in /  0mm
23:40 60.9 °F /  16.1 °C 58.6 °F /  14.8 °C 30.00in /  1015.8hPa Calm     92% 0.00in /  0mm
23:45 61.1 °F /  16.2 °C 58.8 °F /  14.9 °C 30.00in /  1015.8hPa Calm     92% 0.00in /  0mm
23:50 61.1 °F /  16.2 °C 59.1 °F /  15.1 °C 30.00in /  1015.8hPa Calm     93% 0.00in /  0mm
Westford Weather
Compliments of Weather Underground

 
 
Current Radar Loop:

Copyright © WestfordWeather.net 2007-2014. All rights reserved.